Gurney Airport


Codes: AYGN/GUR
Name: Gurney Airport
City: Gurney
Country: Papua New Guinea
Elevation: 88 ft.
Wikipedia:

Photos at Gurney Airport


   Photos courtesy of SpottingLog. You can add your own sightings and photos by signing up for a free trial today.



No photos found.

Weather at Gurney Airport


Time (UTC)DescriptionTempratureWindCloud coverageVisibilityPressureHumidity
23-May-2024 18:00Light Rain24°C2 mph, SW95%10000m1011hPa99%
23-May-2024 21:00Light Rain24°C2 mph, S95%8422m1011hPa98%
24-May-2024 00:00Light Rain25°C2 mph, S98%10000m1012hPa98%
24-May-2024 03:00Light Rain27°C2 mph, SE99%6243m1010hPa94%
24-May-2024 06:00Light Rain27°C4 mph, SE100%10000m1010hPa90%
24-May-2024 09:00Light Rain24°C2 mph, S55%10000m1012hPa99%
24-May-2024 12:00Broken Clouds24°C2 mph, SW64%10000m1013hPa99%
24-May-2024 15:00Overcast Clouds24°C2 mph, SW97%10000m1012hPa99%
24-May-2024 18:00Overcast Clouds24°C2 mph, SW100%10000m1011hPa99%
24-May-2024 21:00Overcast Clouds25°C2 mph, S89%10000m1013hPa98%
25-May-2024 00:00Light Rain28°C4 mph, SE95%8802m1013hPa85%
25-May-2024 03:00Moderate Rain27°C4 mph, SE100%5767m1011hPa95%
25-May-2024 06:00Moderate Rain26°C2 mph, SE100%3485m1010hPa96%
25-May-2024 09:00Light Rain24°C2 mph, S100%10000m1012hPa99%
25-May-2024 12:00Light Rain24°C2 mph, S100%8102m1013hPa100%
25-May-2024 15:00Light Rain24°C2 mph, N100%0m1012hPa99%
25-May-2024 18:00Moderate Rain24°C2 mph, N100%0m1011hPa99%
25-May-2024 21:00Light Rain24°C2 mph, SW100%5913m1013hPa99%
26-May-2024 00:00Light Rain26°C2 mph, S99%10000m1013hPa96%
26-May-2024 03:00Moderate Rain26°C4 mph, SE100%8704m1011hPa96%
26-May-2024 06:00Light Rain25°C2 mph, SE100%10000m1011hPa98%
26-May-2024 09:00Light Rain24°C2 mph, SW91%10000m1012hPa99%
26-May-2024 12:00Light Rain24°C2 mph, SW96%10000m1014hPa99%
26-May-2024 15:00Light Rain24°C2 mph, SW100%10000m1012hPa99%
26-May-2024 18:00Overcast Clouds23°C2 mph, SW100%5359m1011hPa100%
26-May-2024 21:00Overcast Clouds24°C2 mph, SW100%6208m1013hPa99%
27-May-2024 00:00Light Rain28°C4 mph, SE100%10000m1013hPa84%
27-May-2024 03:00Light Rain28°C4 mph, SE84%10000m1011hPa78%
27-May-2024 06:00Light Rain27°C4 mph, SE84%10000m1010hPa88%
27-May-2024 09:00Light Rain24°C2 mph, SW67%10000m1012hPa99%
27-May-2024 12:00Broken Clouds24°C2 mph, SW72%10000m1013hPa99%
27-May-2024 15:00Overcast Clouds24°C2 mph, SW88%10000m1011hPa99%
27-May-2024 18:00Overcast Clouds23°C2 mph, SW89%10000m1011hPa99%
27-May-2024 21:00Light Rain24°C2 mph, SW73%10000m1012hPa98%
28-May-2024 00:00Light Rain26°C2 mph, SE78%5255m1013hPa95%
28-May-2024 03:00Moderate Rain27°C2 mph, SE90%6327m1010hPa95%
28-May-2024 06:00Moderate Rain26°C2 mph, SE96%4751m1010hPa97%
28-May-2024 09:00Light Rain24°C2 mph, S94%10000m1012hPa99%
28-May-2024 12:00Light Rain25°C2 mph, S98%8047m1013hPa99%
28-May-2024 15:00Light Rain25°C2 mph, S100%795m1011hPa99%